sensor_id;sensor_type;location;lat;lon;timestamp;P1;durP1;ratioP1;P2;durP2;ratioP2
21293;SDS011;10806;52.250;21.066;2022-09-09T00:00:38;13.30;;;4.97;;
21293;SDS011;10806;52.250;21.066;2022-09-09T00:03:14;10.00;;;4.97;;
21293;SDS011;10806;52.250;21.066;2022-09-09T00:12:14;11.07;;;4.85;;
21293;SDS011;10806;52.250;21.066;2022-09-09T00:14:32;12.23;;;4.50;;
21293;SDS011;10806;52.250;21.066;2022-09-09T00:17:04;11.95;;;4.55;;
21293;SDS011;10806;52.250;21.066;2022-09-09T00:19:49;10.18;;;4.28;;
21293;SDS011;10806;52.250;21.066;2022-09-09T00:22:34;11.73;;;4.82;;
21293;SDS011;10806;52.250;21.066;2022-09-09T00:25:18;12.20;;;4.63;;
21293;SDS011;10806;52.250;21.066;2022-09-09T00:27:51;14.25;;;4.85;;
21293;SDS011;10806;52.250;21.066;2022-09-09T00:30:18;7.13;;;4.45;;
21293;SDS011;10806;52.250;21.066;2022-09-09T00:32:55;10.88;;;4.95;;
21293;SDS011;10806;52.250;21.066;2022-09-09T00:35:26;11.40;;;4.72;;
21293;SDS011;10806;52.250;21.066;2022-09-09T00:37:58;14.35;;;4.63;;
21293;SDS011;10806;52.250;21.066;2022-09-09T00:40:35;8.52;;;4.60;;
21293;SDS011;10806;52.250;21.066;2022-09-09T00:45:56;14.40;;;5.07;;
21293;SDS011;10806;52.250;21.066;2022-09-09T00:48:27;12.25;;;4.40;;
21293;SDS011;10806;52.250;21.066;2022-09-09T01:00:15;17.10;;;5.00;;
21293;SDS011;10806;52.250;21.066;2022-09-09T01:05:19;13.80;;;5.25;;
21293;SDS011;10806;52.250;21.066;2022-09-09T01:08:18;12.18;;;4.97;;
21293;SDS011;10806;52.250;21.066;2022-09-09T01:10:53;10.90;;;4.93;;
21293;SDS011;10806;52.250;21.066;2022-09-09T01:13:27;10.77;;;4.80;;
21293;SDS011;10806;52.250;21.066;2022-09-09T01:15:58;17.25;;;4.82;;
21293;SDS011;10806;52.250;21.066;2022-09-09T01:18:43;13.80;;;4.95;;
21293;SDS011;10806;52.250;21.066;2022-09-09T01:21:17;10.80;;;4.95;;
21293;SDS011;10806;52.250;21.066;2022-09-09T01:24:13;10.80;;;4.72;;
21293;SDS011;10806;52.250;21.066;2022-09-09T01:26:45;11.23;;;4.90;;
21293;SDS011;10806;52.250;21.066;2022-09-09T01:29:13;9.80;;;4.57;;
21293;SDS011;10806;52.250;21.066;2022-09-09T01:31:42;9.10;;;4.78;;
21293;SDS011;10806;52.250;21.066;2022-09-09T01:34:23;10.10;;;4.65;;
21293;SDS011;10806;52.250;21.066;2022-09-09T01:36:59;9.35;;;4.40;;
21293;SDS011;10806;52.250;21.066;2022-09-09T01:39:34;8.32;;;4.45;;
21293;SDS011;10806;52.250;21.066;2022-09-09T01:42:01;9.88;;;4.93;;
21293;SDS011;10806;52.250;21.066;2022-09-09T01:44:29;10.77;;;4.82;;
21293;SDS011;10806;52.250;21.066;2022-09-09T01:46:55;9.73;;;4.95;;
21293;SDS011;10806;52.250;21.066;2022-09-09T01:49:21;9.90;;;4.72;;
21293;SDS011;10806;52.250;21.066;2022-09-09T01:51:49;8.75;;;4.75;;
21293;SDS011;10806;52.250;21.066;2022-09-09T01:54:18;10.27;;;4.90;;
21293;SDS011;10806;52.250;21.066;2022-09-09T01:57:01;8.43;;;4.82;;
21293;SDS011;10806;52.250;21.066;2022-09-09T01:59:48;9.00;;;5.20;;
21293;SDS011;10806;52.250;21.066;2022-09-09T02:02:35;8.85;;;4.65;;
21293;SDS011;10806;52.250;21.066;2022-09-09T02:05:27;10.32;;;5.07;;
21293;SDS011;10806;52.250;21.066;2022-09-09T02:08:08;10.63;;;4.43;;
21293;SDS011;10806;52.250;21.066;2022-09-09T02:10:46;9.40;;;4.78;;
21293;SDS011;10806;52.250;21.066;2022-09-09T02:13:20;9.77;;;5.20;;
21293;SDS011;10806;52.250;21.066;2022-09-09T02:15:49;9.10;;;4.97;;
21293;SDS011;10806;52.250;21.066;2022-09-09T02:18:23;11.32;;;5.47;;
21293;SDS011;10806;52.250;21.066;2022-09-09T02:20:57;9.18;;;5.13;;
21293;SDS011;10806;52.250;21.066;2022-09-09T02:23:24;10.77;;;5.68;;
21293;SDS011;10806;52.250;21.066;2022-09-09T02:25:50;11.35;;;5.18;;
21293;SDS011;10806;52.250;21.066;2022-09-09T02:28:18;10.27;;;5.38;;
21293;SDS011;10806;52.250;21.066;2022-09-09T02:30:46;9.68;;;5.18;;
21293;SDS011;10806;52.250;21.066;2022-09-09T02:33:18;8.80;;;4.75;;
21293;SDS011;10806;52.250;21.066;2022-09-09T02:35:44;8.68;;;5.45;;
21293;SDS011;10806;52.250;21.066;2022-09-09T02:38:12;11.68;;;5.25;;
21293;SDS011;10806;52.250;21.066;2022-09-09T02:40:40;6.97;;;4.72;;
21293;SDS011;10806;52.250;21.066;2022-09-09T02:43:05;10.32;;;4.88;;
21293;SDS011;10806;52.250;21.066;2022-09-09T02:45:33;11.88;;;5.18;;
21293;SDS011;10806;52.250;21.066;2022-09-09T02:50:57;11.13;;;4.85;;
21293;SDS011;10806;52.250;21.066;2022-09-09T02:56:40;9.45;;;5.18;;
21293;SDS011;10806;52.250;21.066;2022-09-09T02:59:11;8.50;;;5.32;;
21293;SDS011;10806;52.250;21.066;2022-09-09T03:01:37;11.23;;;5.57;;
21293;SDS011;10806;52.250;21.066;2022-09-09T03:04:04;9.23;;;5.03;;
21293;SDS011;10806;52.250;21.066;2022-09-09T03:06:30;7.60;;;5.22;;
21293;SDS011;10806;52.250;21.066;2022-09-09T03:08:58;8.80;;;4.88;;
21293;SDS011;10806;52.250;21.066;2022-09-09T03:11:27;9.02;;;5.47;;
21293;SDS011;10806;52.250;21.066;2022-09-09T03:13:52;7.15;;;4.88;;
21293;SDS011;10806;52.250;21.066;2022-09-09T03:16:20;17.23;;;5.82;;
21293;SDS011;10806;52.250;21.066;2022-09-09T03:18:47;8.98;;;4.90;;
21293;SDS011;10806;52.250;21.066;2022-09-09T03:21:12;8.07;;;5.15;;
21293;SDS011;10806;52.250;21.066;2022-09-09T03:23:39;12.98;;;5.25;;
21293;SDS011;10806;52.250;21.066;2022-09-09T03:26:04;10.55;;;5.25;;
21293;SDS011;10806;52.250;21.066;2022-09-09T03:28:30;9.60;;;5.63;;
21293;SDS011;10806;52.250;21.066;2022-09-09T03:31:02;8.82;;;5.70;;
21293;SDS011;10806;52.250;21.066;2022-09-09T03:33:29;8.88;;;5.00;;
21293;SDS011;10806;52.250;21.066;2022-09-09T03:35:56;9.60;;;5.18;;
21293;SDS011;10806;52.250;21.066;2022-09-09T03:38:25;7.88;;;5.47;;
21293;SDS011;10806;52.250;21.066;2022-09-09T03:40:51;9.18;;;5.22;;
21293;SDS011;10806;52.250;21.066;2022-09-09T03:43:22;8.05;;;5.57;;
21293;SDS011;10806;52.250;21.066;2022-09-09T03:45:49;16.17;;;5.97;;
21293;SDS011;10806;52.250;21.066;2022-09-09T03:48:15;8.95;;;5.57;;
21293;SDS011;10806;52.250;21.066;2022-09-09T03:50:45;7.90;;;5.13;;
21293;SDS011;10806;52.250;21.066;2022-09-09T03:53:15;8.23;;;5.25;;
21293;SDS011;10806;52.250;21.066;2022-09-09T03:55:51;8.07;;;5.30;;
21293;SDS011;10806;52.250;21.066;2022-09-09T03:58:19;15.40;;;5.90;;
21293;SDS011;10806;52.250;21.066;2022-09-09T04:01:03;11.23;;;6.05;;
21293;SDS011;10806;52.250;21.066;2022-09-09T04:03:30;11.85;;;5.68;;
21293;SDS011;10806;52.250;21.066;2022-09-09T04:05:56;10.48;;;5.18;;
21293;SDS011;10806;52.250;21.066;2022-09-09T04:08:23;6.97;;;5.10;;
21293;SDS011;10806;52.250;21.066;2022-09-09T04:10:52;7.43;;;5.15;;
21293;SDS011;10806;52.250;21.066;2022-09-09T04:13:22;9.95;;;5.28;;
21293;SDS011;10806;52.250;21.066;2022-09-09T04:15:50;8.38;;;5.45;;
21293;SDS011;10806;52.250;21.066;2022-09-09T04:18:17;8.80;;;5.50;;
21293;SDS011;10806;52.250;21.066;2022-09-09T04:20:42;10.05;;;5.72;;
21293;SDS011;10806;52.250;21.066;2022-09-09T04:23:10;9.13;;;5.82;;
21293;SDS011;10806;52.250;21.066;2022-09-09T04:25:36;8.55;;;5.15;;
21293;SDS011;10806;52.250;21.066;2022-09-09T04:28:02;9.63;;;5.72;;
21293;SDS011;10806;52.250;21.066;2022-09-09T04:30:28;8.73;;;5.35;;
21293;SDS011;10806;52.250;21.066;2022-09-09T04:32:54;7.28;;;5.38;;
21293;SDS011;10806;52.250;21.066;2022-09-09T04:35:19;12.60;;;5.47;;
21293;SDS011;10806;52.250;21.066;2022-09-09T04:37:45;7.60;;;5.50;;
21293;SDS011;10806;52.250;21.066;2022-09-09T04:40:11;10.63;;;5.57;;
21293;SDS011;10806;52.250;21.066;2022-09-09T04:42:37;6.47;;;5.07;;
21293;SDS011;10806;52.250;21.066;2022-09-09T04:45:03;7.00;;;5.05;;
21293;SDS011;10806;52.250;21.066;2022-09-09T04:47:29;14.15;;;5.35;;
21293;SDS011;10806;52.250;21.066;2022-09-09T04:49:55;7.10;;;5.38;;
21293;SDS011;10806;52.250;21.066;2022-09-09T04:52:21;10.77;;;5.38;;
21293;SDS011;10806;52.250;21.066;2022-09-09T04:54:47;8.50;;;5.18;;
21293;SDS011;10806;52.250;21.066;2022-09-09T04:57:13;8.55;;;4.85;;
21293;SDS011;10806;52.250;21.066;2022-09-09T04:59:38;8.18;;;5.28;;
21293;SDS011;10806;52.250;21.066;2022-09-09T05:02:04;11.15;;;5.10;;
21293;SDS011;10806;52.250;21.066;2022-09-09T05:04:30;8.38;;;4.82;;
21293;SDS011;10806;52.250;21.066;2022-09-09T05:06:56;8.77;;;5.03;;
21293;SDS011;10806;52.250;21.066;2022-09-09T05:09:21;9.02;;;5.53;;
21293;SDS011;10806;52.250;21.066;2022-09-09T05:11:47;8.57;;;5.07;;
21293;SDS011;10806;52.250;21.066;2022-09-09T05:14:12;10.30;;;5.60;;
21293;SDS011;10806;52.250;21.066;2022-09-09T05:16:39;7.43;;;5.18;;
21293;SDS011;10806;52.250;21.066;2022-09-09T05:19:05;9.90;;;5.32;;
21293;SDS011;10806;52.250;21.066;2022-09-09T05:21:33;7.43;;;5.38;;
21293;SDS011;10806;52.250;21.066;2022-09-09T05:23:58;10.15;;;5.32;;
21293;SDS011;10806;52.250;21.066;2022-09-09T05:26:25;9.85;;;4.85;;
21293;SDS011;10806;52.250;21.066;2022-09-09T05:28:51;8.75;;;5.20;;
21293;SDS011;10806;52.250;21.066;2022-09-09T05:31:17;10.65;;;5.10;;
21293;SDS011;10806;52.250;21.066;2022-09-09T05:33:44;8.30;;;5.05;;
21293;SDS011;10806;52.250;21.066;2022-09-09T05:36:12;7.40;;;4.90;;
21293;SDS011;10806;52.250;21.066;2022-09-09T05:38:39;9.43;;;4.93;;
21293;SDS011;10806;52.250;21.066;2022-09-09T05:41:06;8.90;;;4.85;;
21293;SDS011;10806;52.250;21.066;2022-09-09T05:43:32;9.60;;;5.10;;
21293;SDS011;10806;52.250;21.066;2022-09-09T05:46:14;8.27;;;4.82;;
21293;SDS011;10806;52.250;21.066;2022-09-09T05:48:41;7.63;;;5.18;;
21293;SDS011;10806;52.250;21.066;2022-09-09T05:51:09;7.07;;;4.97;;
21293;SDS011;10806;52.250;21.066;2022-09-09T05:53:37;8.25;;;4.85;;
21293;SDS011;10806;52.250;21.066;2022-09-09T05:56:08;6.22;;;4.55;;
21293;SDS011;10806;52.250;21.066;2022-09-09T05:58:35;9.30;;;4.82;;
21293;SDS011;10806;52.250;21.066;2022-09-09T06:01:05;8.15;;;4.45;;
21293;SDS011;10806;52.250;21.066;2022-09-09T06:03:39;7.53;;;4.88;;
21293;SDS011;10806;52.250;21.066;2022-09-09T06:06:10;7.38;;;4.68;;
21293;SDS011;10806;52.250;21.066;2022-09-09T06:08:38;8.45;;;5.07;;
21293;SDS011;10806;52.250;21.066;2022-09-09T06:11:05;9.27;;;4.97;;
21293;SDS011;10806;52.250;21.066;2022-09-09T06:13:36;7.97;;;4.65;;
21293;SDS011;10806;52.250;21.066;2022-09-09T06:16:11;7.93;;;4.60;;
21293;SDS011;10806;52.250;21.066;2022-09-09T06:18:38;9.70;;;4.53;;
21293;SDS011;10806;52.250;21.066;2022-09-09T06:21:05;9.07;;;4.50;;
21293;SDS011;10806;52.250;21.066;2022-09-09T06:23:33;7.47;;;4.60;;
21293;SDS011;10806;52.250;21.066;2022-09-09T06:26:05;7.20;;;4.57;;
21293;SDS011;10806;52.250;21.066;2022-09-09T06:28:36;6.45;;;4.18;;
21293;SDS011;10806;52.250;21.066;2022-09-09T06:31:03;24.25;;;5.07;;
21293;SDS011;10806;52.250;21.066;2022-09-09T06:33:30;40.38;;;5.90;;
21293;SDS011;10806;52.250;21.066;2022-09-09T06:35:59;14.27;;;4.55;;
21293;SDS011;10806;52.250;21.066;2022-09-09T06:38:26;21.33;;;4.93;;
21293;SDS011;10806;52.250;21.066;2022-09-09T06:40:56;15.55;;;5.28;;
21293;SDS011;10806;52.250;21.066;2022-09-09T06:43:27;13.25;;;5.22;;
21293;SDS011;10806;52.250;21.066;2022-09-09T06:48:19;10.45;;;4.90;;
21293;SDS011;10806;52.250;21.066;2022-09-09T06:50:45;14.52;;;4.60;;
21293;SDS011;10806;52.250;21.066;2022-09-09T06:53:11;15.07;;;4.65;;
21293;SDS011;10806;52.250;21.066;2022-09-09T06:55:37;8.88;;;4.30;;
21293;SDS011;10806;52.250;21.066;2022-09-09T06:58:07;10.60;;;4.95;;
21293;SDS011;10806;52.250;21.066;2022-09-09T07:00:33;8.10;;;4.60;;
21293;SDS011;10806;52.250;21.066;2022-09-09T07:02:59;10.55;;;4.88;;
21293;SDS011;10806;52.250;21.066;2022-09-09T07:05:24;12.90;;;4.57;;
21293;SDS011;10806;52.250;21.066;2022-09-09T07:07:50;13.25;;;5.22;;
21293;SDS011;10806;52.250;21.066;2022-09-09T07:10:17;13.77;;;5.25;;
21293;SDS011;10806;52.250;21.066;2022-09-09T07:12:42;16.83;;;5.20;;
21293;SDS011;10806;52.250;21.066;2022-09-09T07:15:08;21.98;;;5.00;;
21293;SDS011;10806;52.250;21.066;2022-09-09T07:17:34;14.95;;;4.65;;
21293;SDS011;10806;52.250;21.066;2022-09-09T07:20:00;18.30;;;5.13;;
21293;SDS011;10806;52.250;21.066;2022-09-09T07:22:27;12.30;;;4.45;;
21293;SDS011;10806;52.250;21.066;2022-09-09T07:24:53;27.30;;;5.13;;
21293;SDS011;10806;52.250;21.066;2022-09-09T07:27:18;21.70;;;5.40;;
21293;SDS011;10806;52.250;21.066;2022-09-09T07:29:44;30.20;;;5.32;;
21293;SDS011;10806;52.250;21.066;2022-09-09T07:32:10;15.98;;;4.97;;
21293;SDS011;10806;52.250;21.066;2022-09-09T07:34:36;17.55;;;4.95;;
21293;SDS011;10806;52.250;21.066;2022-09-09T07:37:01;17.80;;;4.80;;
21293;SDS011;10806;52.250;21.066;2022-09-09T07:39:27;14.18;;;4.80;;
21293;SDS011;10806;52.250;21.066;2022-09-09T07:41:53;19.65;;;5.50;;
21293;SDS011;10806;52.250;21.066;2022-09-09T07:44:20;12.20;;;4.30;;
21293;SDS011;10806;52.250;21.066;2022-09-09T07:46:48;12.38;;;5.05;;
21293;SDS011;10806;52.250;21.066;2022-09-09T07:49:14;12.95;;;4.97;;
21293;SDS011;10806;52.250;21.066;2022-09-09T07:51:41;14.52;;;4.22;;
21293;SDS011;10806;52.250;21.066;2022-09-09T07:54:09;14.80;;;4.40;;
21293;SDS011;10806;52.250;21.066;2022-09-09T07:56:36;13.93;;;4.43;;
21293;SDS011;10806;52.250;21.066;2022-09-09T07:59:04;9.38;;;4.57;;
21293;SDS011;10806;52.250;21.066;2022-09-09T08:01:34;17.95;;;4.63;;
21293;SDS011;10806;52.250;21.066;2022-09-09T08:04:04;7.13;;;4.68;;
21293;SDS011;10806;52.250;21.066;2022-09-09T08:06:39;12.55;;;5.03;;
21293;SDS011;10806;52.250;21.066;2022-09-09T08:09:06;9.23;;;4.57;;
21293;SDS011;10806;52.250;21.066;2022-09-09T08:11:32;19.10;;;5.10;;
21293;SDS011;10806;52.250;21.066;2022-09-09T08:13:59;13.68;;;5.72;;
21293;SDS011;10806;52.250;21.066;2022-09-09T08:16:26;20.73;;;4.78;;
21293;SDS011;10806;52.250;21.066;2022-09-09T08:18:53;19.75;;;4.82;;
21293;SDS011;10806;52.250;21.066;2022-09-09T08:21:20;26.00;;;5.10;;
21293;SDS011;10806;52.250;21.066;2022-09-09T08:23:49;16.80;;;4.93;;
21293;SDS011;10806;52.250;21.066;2022-09-09T08:26:18;28.52;;;5.38;;
21293;SDS011;10806;52.250;21.066;2022-09-09T08:28:51;15.25;;;4.95;;
21293;SDS011;10806;52.250;21.066;2022-09-09T08:31:22;13.68;;;4.90;;
21293;SDS011;10806;52.250;21.066;2022-09-09T08:33:56;13.50;;;4.90;;
21293;SDS011;10806;52.250;21.066;2022-09-09T08:36:25;13.48;;;5.07;;
21293;SDS011;10806;52.250;21.066;2022-09-09T08:38:53;12.95;;;5.38;;
21293;SDS011;10806;52.250;21.066;2022-09-09T08:52:39;19.15;;;5.65;;
21293;SDS011;10806;52.250;21.066;2022-09-09T08:55:31;22.70;;;5.30;;
21293;SDS011;10806;52.250;21.066;2022-09-09T08:58:23;20.52;;;5.80;;
21293;SDS011;10806;52.250;21.066;2022-09-09T09:00:57;18.10;;;4.82;;
21293;SDS011;10806;52.250;21.066;2022-09-09T09:03:43;9.50;;;4.80;;
21293;SDS011;10806;52.250;21.066;2022-09-09T09:09:06;26.98;;;6.03;;
21293;SDS011;10806;52.250;21.066;2022-09-09T09:14:22;14.63;;;4.95;;
21293;SDS011;10806;52.250;21.066;2022-09-09T09:16:53;12.75;;;5.53;;
21293;SDS011;10806;52.250;21.066;2022-09-09T09:19:25;15.73;;;5.43;;
21293;SDS011;10806;52.250;21.066;2022-09-09T09:27:11;31.20;;;6.70;;
21293;SDS011;10806;52.250;21.066;2022-09-09T09:29:46;82.70;;;8.63;;
21293;SDS011;10806;52.250;21.066;2022-09-09T09:32:16;55.85;;;7.80;;
21293;SDS011;10806;52.250;21.066;2022-09-09T09:34:49;39.72;;;7.43;;
21293;SDS011;10806;52.250;21.066;2022-09-09T09:37:23;71.53;;;8.25;;
21293;SDS011;10806;52.250;21.066;2022-09-09T09:39:56;40.47;;;7.00;;
21293;SDS011;10806;52.250;21.066;2022-09-09T09:42:32;39.88;;;6.65;;
21293;SDS011;10806;52.250;21.066;2022-09-09T09:45:07;43.03;;;7.45;;
21293;SDS011;10806;52.250;21.066;2022-09-09T09:47:45;34.85;;;6.70;;
21293;SDS011;10806;52.250;21.066;2022-09-09T09:50:18;45.53;;;7.05;;
21293;SDS011;10806;52.250;21.066;2022-09-09T09:52:53;37.70;;;6.85;;
21293;SDS011;10806;52.250;21.066;2022-09-09T09:55:24;30.13;;;6.20;;
21293;SDS011;10806;52.250;21.066;2022-09-09T09:57:50;34.63;;;6.53;;
21293;SDS011;10806;52.250;21.066;2022-09-09T10:00:18;56.20;;;7.80;;
21293;SDS011;10806;52.250;21.066;2022-09-09T10:02:47;47.65;;;8.00;;
21293;SDS011;10806;52.250;21.066;2022-09-09T10:05:15;54.92;;;7.78;;
21293;SDS011;10806;52.250;21.066;2022-09-09T10:08:25;52.92;;;8.15;;
21293;SDS011;10806;52.250;21.066;2022-09-09T10:16:09;35.78;;;7.28;;
21293;SDS011;10806;52.250;21.066;2022-09-09T10:38:17;29.65;;;6.53;;
21293;SDS011;10806;52.250;21.066;2022-09-09T10:41:11;30.00;;;7.40;;
21293;SDS011;10806;52.250;21.066;2022-09-09T10:52:33;29.05;;;10.40;;
21293;SDS011;10806;52.250;21.066;2022-09-09T10:55:19;18.55;;;9.70;;
21293;SDS011;10806;52.250;21.066;2022-09-09T10:57:51;23.08;;;9.70;;
21293;SDS011;10806;52.250;21.066;2022-09-09T11:00:23;17.60;;;10.07;;
21293;SDS011;10806;52.250;21.066;2022-09-09T11:03:20;18.85;;;9.48;;
21293;SDS011;10806;52.250;21.066;2022-09-09T11:05:51;15.88;;;8.95;;
21293;SDS011;10806;52.250;21.066;2022-09-09T11:08:23;21.52;;;9.93;;
21293;SDS011;10806;52.250;21.066;2022-09-09T11:16:01;18.20;;;9.15;;
21293;SDS011;10806;52.250;21.066;2022-09-09T11:18:37;15.18;;;8.68;;
21293;SDS011;10806;52.250;21.066;2022-09-09T11:21:05;19.92;;;9.63;;
21293;SDS011;10806;52.250;21.066;2022-09-09T11:23:42;27.38;;;9.20;;
21293;SDS011;10806;52.250;21.066;2022-09-09T11:26:18;20.88;;;11.25;;
21293;SDS011;10806;52.250;21.066;2022-09-09T11:40:34;17.90;;;13.50;;
21293;SDS011;10806;52.250;21.066;2022-09-09T11:43:03;18.15;;;13.82;;
21293;SDS011;10806;52.250;21.066;2022-09-09T11:45:30;19.67;;;13.75;;
21293;SDS011;10806;52.250;21.066;2022-09-09T11:47:59;27.48;;;14.38;;
21293;SDS011;10806;52.250;21.066;2022-09-09T11:53:02;37.42;;;13.82;;
21293;SDS011;10806;52.250;21.066;2022-09-09T11:55:42;35.83;;;14.10;;
21293;SDS011;10806;52.250;21.066;2022-09-09T12:00:37;37.08;;;13.07;;
21293;SDS011;10806;52.250;21.066;2022-09-09T12:03:08;28.92;;;13.68;;
21293;SDS011;10806;52.250;21.066;2022-09-09T12:06:28;28.40;;;12.60;;
21293;SDS011;10806;52.250;21.066;2022-09-09T12:08:58;24.15;;;12.60;;
21293;SDS011;10806;52.250;21.066;2022-09-09T12:11:31;23.60;;;12.57;;
21293;SDS011;10806;52.250;21.066;2022-09-09T12:13:58;28.83;;;12.13;;
21293;SDS011;10806;52.250;21.066;2022-09-09T12:16:31;25.08;;;11.10;;
21293;SDS011;10806;52.250;21.066;2022-09-09T12:22:21;24.75;;;11.63;;
21293;SDS011;10806;52.250;21.066;2022-09-09T12:24:43;31.50;;;11.45;;
21293;SDS011;10806;52.250;21.066;2022-09-09T12:27:18;19.98;;;10.95;;
21293;SDS011;10806;52.250;21.066;2022-09-09T12:29:54;24.45;;;11.05;;
21293;SDS011;10806;52.250;21.066;2022-09-09T12:32:34;16.92;;;10.75;;
21293;SDS011;10806;52.250;21.066;2022-09-09T12:37:42;18.52;;;11.43;;
21293;SDS011;10806;52.250;21.066;2022-09-09T12:42:46;28.08;;;11.35;;
21293;SDS011;10806;52.250;21.066;2022-09-09T12:45:16;18.73;;;11.43;;
21293;SDS011;10806;52.250;21.066;2022-09-09T12:47:48;15.35;;;10.07;;
21293;SDS011;10806;52.250;21.066;2022-09-09T12:50:24;15.88;;;10.70;;
21293;SDS011;10806;52.250;21.066;2022-09-09T12:52:52;21.50;;;10.32;;
21293;SDS011;10806;52.250;21.066;2022-09-09T12:55:55;24.52;;;11.13;;
21293;SDS011;10806;52.250;21.066;2022-09-09T12:58:22;20.73;;;10.70;;
21293;SDS011;10806;52.250;21.066;2022-09-09T13:00:51;28.20;;;10.70;;
21293;SDS011;10806;52.250;21.066;2022-09-09T13:03:19;24.35;;;10.40;;
21293;SDS011;10806;52.250;21.066;2022-09-09T13:05:46;19.23;;;10.93;;
21293;SDS011;10806;52.250;21.066;2022-09-09T13:08:12;14.15;;;9.77;;
21293;SDS011;10806;52.250;21.066;2022-09-09T13:10:59;24.30;;;10.50;;
21293;SDS011;10806;52.250;21.066;2022-09-09T13:13:28;16.98;;;10.90;;
21293;SDS011;10806;52.250;21.066;2022-09-09T13:16:03;16.15;;;10.18;;
21293;SDS011;10806;52.250;21.066;2022-09-09T13:18:34;15.18;;;10.07;;
21293;SDS011;10806;52.250;21.066;2022-09-09T13:21:01;15.70;;;10.07;;
21293;SDS011;10806;52.250;21.066;2022-09-09T13:23:31;16.80;;;10.30;;
21293;SDS011;10806;52.250;21.066;2022-09-09T13:26:04;16.45;;;9.75;;
21293;SDS011;10806;52.250;21.066;2022-09-09T13:28:51;17.88;;;10.13;;
21293;SDS011;10806;52.250;21.066;2022-09-09T13:31:22;14.68;;;9.98;;
21293;SDS011;10806;52.250;21.066;2022-09-09T13:33:57;16.48;;;10.00;;
21293;SDS011;10806;52.250;21.066;2022-09-09T13:36:29;14.82;;;9.68;;
21293;SDS011;10806;52.250;21.066;2022-09-09T13:38:57;15.70;;;10.25;;
21293;SDS011;10806;52.250;21.066;2022-09-09T13:41:35;19.52;;;10.20;;
21293;SDS011;10806;52.250;21.066;2022-09-09T13:44:02;20.90;;;9.80;;
21293;SDS011;10806;52.250;21.066;2022-09-09T13:46:35;23.80;;;10.13;;
21293;SDS011;10806;52.250;21.066;2022-09-09T13:51:43;33.50;;;10.30;;
21293;SDS011;10806;52.250;21.066;2022-09-09T13:54:12;24.70;;;10.73;;
21293;SDS011;10806;52.250;21.066;2022-09-09T13:56:40;23.05;;;10.48;;
21293;SDS011;10806;52.250;21.066;2022-09-09T13:59:16;22.67;;;10.55;;
21293;SDS011;10806;52.250;21.066;2022-09-09T14:01:46;16.13;;;10.02;;
21293;SDS011;10806;52.250;21.066;2022-09-09T14:04:13;23.27;;;9.88;;
21293;SDS011;10806;52.250;21.066;2022-09-09T14:06:40;13.45;;;10.05;;
21293;SDS011;10806;52.250;21.066;2022-09-09T14:09:07;17.40;;;10.05;;
21293;SDS011;10806;52.250;21.066;2022-09-09T14:11:35;19.15;;;10.27;;
21293;SDS011;10806;52.250;21.066;2022-09-09T14:14:01;18.70;;;10.30;;
21293;SDS011;10806;52.250;21.066;2022-09-09T14:16:26;23.25;;;10.50;;
21293;SDS011;10806;52.250;21.066;2022-09-09T14:18:52;21.00;;;11.15;;
21293;SDS011;10806;52.250;21.066;2022-09-09T14:21:21;21.23;;;10.68;;
21293;SDS011;10806;52.250;21.066;2022-09-09T14:23:46;17.70;;;11.50;;
21293;SDS011;10806;52.250;21.066;2022-09-09T14:26:14;21.73;;;11.43;;
21293;SDS011;10806;52.250;21.066;2022-09-09T14:28:40;36.05;;;15.52;;
21293;SDS011;10806;52.250;21.066;2022-09-09T14:31:06;37.05;;;14.43;;
21293;SDS011;10806;52.250;21.066;2022-09-09T14:33:32;41.35;;;18.35;;
21293;SDS011;10806;52.250;21.066;2022-09-09T14:35:59;64.50;;;23.52;;
21293;SDS011;10806;52.250;21.066;2022-09-09T14:38:30;82.47;;;28.20;;
21293;SDS011;10806;52.250;21.066;2022-09-09T14:41:03;97.50;;;32.20;;
21293;SDS011;10806;52.250;21.066;2022-09-09T14:43:29;100.72;;;34.35;;
21293;SDS011;10806;52.250;21.066;2022-09-09T14:45:57;108.10;;;37.53;;
21293;SDS011;10806;52.250;21.066;2022-09-09T14:48:30;100.15;;;37.17;;
21293;SDS011;10806;52.250;21.066;2022-09-09T14:50:56;93.00;;;39.28;;
21293;SDS011;10806;52.250;21.066;2022-09-09T14:53:21;97.75;;;39.88;;
21293;SDS011;10806;52.250;21.066;2022-09-09T14:55:47;93.68;;;38.83;;
21293;SDS011;10806;52.250;21.066;2022-09-09T14:58:13;103.10;;;39.00;;
21293;SDS011;10806;52.250;21.066;2022-09-09T15:00:38;90.18;;;37.85;;
21293;SDS011;10806;52.250;21.066;2022-09-09T15:03:04;116.05;;;40.42;;
21293;SDS011;10806;52.250;21.066;2022-09-09T15:05:30;97.53;;;38.95;;
21293;SDS011;10806;52.250;21.066;2022-09-09T15:07:56;93.50;;;39.17;;
21293;SDS011;10806;52.250;21.066;2022-09-09T15:10:23;95.85;;;37.72;;
21293;SDS011;10806;52.250;21.066;2022-09-09T15:12:49;89.00;;;37.15;;
21293;SDS011;10806;52.250;21.066;2022-09-09T15:15:15;106.22;;;37.38;;
21293;SDS011;10806;52.250;21.066;2022-09-09T15:17:40;87.22;;;36.40;;
21293;SDS011;10806;52.250;21.066;2022-09-09T15:20:06;80.70;;;34.33;;
21293;SDS011;10806;52.250;21.066;2022-09-09T15:22:32;79.93;;;33.85;;
21293;SDS011;10806;52.250;21.066;2022-09-09T15:24:58;63.00;;;28.88;;
21293;SDS011;10806;52.250;21.066;2022-09-09T15:27:24;65.32;;;26.13;;
21293;SDS011;10806;52.250;21.066;2022-09-09T15:29:50;64.53;;;27.00;;
21293;SDS011;10806;52.250;21.066;2022-09-09T15:32:16;57.33;;;23.92;;
21293;SDS011;10806;52.250;21.066;2022-09-09T15:34:42;49.00;;;21.63;;
21293;SDS011;10806;52.250;21.066;2022-09-09T15:37:11;48.13;;;22.00;;
21293;SDS011;10806;52.250;21.066;2022-09-09T15:39:40;46.65;;;22.50;;
21293;SDS011;10806;52.250;21.066;2022-09-09T15:42:05;53.20;;;23.85;;
21293;SDS011;10806;52.250;21.066;2022-09-09T15:44:38;44.35;;;20.35;;
21293;SDS011;10806;52.250;21.066;2022-09-09T15:47:07;42.13;;;20.25;;
21293;SDS011;10806;52.250;21.066;2022-09-09T15:49:32;43.58;;;22.02;;
21293;SDS011;10806;52.250;21.066;2022-09-09T15:51:59;41.95;;;19.95;;
21293;SDS011;10806;52.250;21.066;2022-09-09T15:54:28;40.25;;;20.33;;
21293;SDS011;10806;52.250;21.066;2022-09-09T15:56:57;41.92;;;19.35;;
21293;SDS011;10806;52.250;21.066;2022-09-09T15:59:26;42.83;;;18.85;;
21293;SDS011;10806;52.250;21.066;2022-09-09T16:01:53;39.85;;;19.13;;
21293;SDS011;10806;52.250;21.066;2022-09-09T16:04:20;33.38;;;18.80;;
21293;SDS011;10806;52.250;21.066;2022-09-09T16:06:53;35.97;;;18.45;;
21293;SDS011;10806;52.250;21.066;2022-09-09T16:09:20;36.78;;;19.17;;
21293;SDS011;10806;52.250;21.066;2022-09-09T16:11:46;36.58;;;19.00;;
21293;SDS011;10806;52.250;21.066;2022-09-09T16:14:12;33.97;;;17.65;;
21293;SDS011;10806;52.250;21.066;2022-09-09T16:16:40;36.35;;;18.98;;
21293;SDS011;10806;52.250;21.066;2022-09-09T16:19:08;34.72;;;18.63;;
21293;SDS011;10806;52.250;21.066;2022-09-09T16:21:36;30.05;;;17.85;;
21293;SDS011;10806;52.250;21.066;2022-09-09T16:24:05;50.47;;;17.92;;
21293;SDS011;10806;52.250;21.066;2022-09-09T16:26:32;46.45;;;18.05;;
21293;SDS011;10806;52.250;21.066;2022-09-09T16:28:59;33.70;;;17.60;;
21293;SDS011;10806;52.250;21.066;2022-09-09T16:31:26;35.05;;;17.33;;
21293;SDS011;10806;52.250;21.066;2022-09-09T16:33:53;34.83;;;17.48;;
21293;SDS011;10806;52.250;21.066;2022-09-09T16:36:25;32.40;;;17.73;;